sensor_id;sensor_type;location;lat;lon;timestamp;P1;durP1;ratioP1;P2;durP2;ratioP2
65636;SDS011;52327;42.622;23.316;2022-11-20T00:01:19;0.98;;;0.82;;
65636;SDS011;52327;42.622;23.316;2022-11-20T00:03:46;0.40;;;0.40;;
65636;SDS011;52327;42.622;23.316;2022-11-20T00:06:13;0.75;;;0.50;;
65636;SDS011;52327;42.622;23.316;2022-11-20T00:08:40;0.40;;;0.40;;
65636;SDS011;52327;42.622;23.316;2022-11-20T00:11:12;0.80;;;0.50;;
65636;SDS011;52327;42.622;23.316;2022-11-20T00:13:42;0.68;;;0.50;;
65636;SDS011;52327;42.622;23.316;2022-11-20T00:16:09;1.23;;;0.65;;
65636;SDS011;52327;42.622;23.316;2022-11-20T00:18:36;0.68;;;0.50;;
65636;SDS011;52327;42.622;23.316;2022-11-20T00:21:44;1.17;;;0.70;;
65636;SDS011;52327;42.622;23.316;2022-11-20T00:23:55;0.35;;;0.35;;
65636;SDS011;52327;42.622;23.316;2022-11-20T00:26:22;0.90;;;0.60;;
65636;SDS011;52327;42.622;23.316;2022-11-20T00:28:52;0.90;;;0.60;;
65636;SDS011;52327;42.622;23.316;2022-11-20T00:31:19;0.57;;;0.35;;
65636;SDS011;52327;42.622;23.316;2022-11-20T00:33:45;0.43;;;0.30;;
65636;SDS011;52327;42.622;23.316;2022-11-20T00:36:16;0.45;;;0.38;;
65636;SDS011;52327;42.622;23.316;2022-11-20T00:38:43;0.20;;;0.20;;
65636;SDS011;52327;42.622;23.316;2022-11-20T00:41:09;0.30;;;0.30;;
65636;SDS011;52327;42.622;23.316;2022-11-20T00:43:37;0.47;;;0.38;;
65636;SDS011;52327;42.622;23.316;2022-11-20T00:46:04;1.00;;;0.35;;
65636;SDS011;52327;42.622;23.316;2022-11-20T00:48:34;0.50;;;0.25;;
65636;SDS011;52327;42.622;23.316;2022-11-20T00:51:00;0.73;;;0.63;;
65636;SDS011;52327;42.622;23.316;2022-11-20T00:53:33;1.45;;;0.47;;
65636;SDS011;52327;42.622;23.316;2022-11-20T00:55:59;0.43;;;0.25;;
65636;SDS011;52327;42.622;23.316;2022-11-20T00:58:30;0.57;;;0.52;;
65636;SDS011;52327;42.622;23.316;2022-11-20T01:01:01;0.98;;;0.70;;
65636;SDS011;52327;42.622;23.316;2022-11-20T01:03:41;6.57;;;1.35;;
65636;SDS011;52327;42.622;23.316;2022-11-20T01:08:36;0.20;;;0.20;;
65636;SDS011;52327;42.622;23.316;2022-11-20T01:11:03;1.73;;;0.55;;
65636;SDS011;52327;42.622;23.316;2022-11-20T01:13:30;0.73;;;0.60;;
65636;SDS011;52327;42.622;23.316;2022-11-20T01:18:59;0.30;;;0.20;;
65636;SDS011;52327;42.622;23.316;2022-11-20T01:21:28;0.20;;;0.20;;
65636;SDS011;52327;42.622;23.316;2022-11-20T01:23:56;0.30;;;0.22;;
65636;SDS011;52327;42.622;23.316;2022-11-20T01:26:24;0.10;;;0.10;;
65636;SDS011;52327;42.622;23.316;2022-11-20T01:28:54;1.45;;;0.40;;
65636;SDS011;52327;42.622;23.316;2022-11-20T01:33:55;0.13;;;0.13;;
65636;SDS011;52327;42.622;23.316;2022-11-20T01:36:23;1.42;;;0.50;;
65636;SDS011;52327;42.622;23.316;2022-11-20T01:38:53;0.17;;;0.17;;
65636;SDS011;52327;42.622;23.316;2022-11-20T01:41:22;0.40;;;0.40;;
65636;SDS011;52327;42.622;23.316;2022-11-20T01:44:13;0.17;;;0.17;;
65636;SDS011;52327;42.622;23.316;2022-11-20T01:46:40;0.43;;;0.25;;
65636;SDS011;52327;42.622;23.316;2022-11-20T01:49:16;0.60;;;0.20;;
65636;SDS011;52327;42.622;23.316;2022-11-20T01:52:03;1.58;;;0.40;;
65636;SDS011;52327;42.622;23.316;2022-11-20T01:54:36;0.10;;;0.10;;
65636;SDS011;52327;42.622;23.316;2022-11-20T01:57:06;1.83;;;0.55;;
65636;SDS011;52327;42.622;23.316;2022-11-20T01:59:35;0.45;;;0.30;;
65636;SDS011;52327;42.622;23.316;2022-11-20T02:02:20;0.35;;;0.20;;
65636;SDS011;52327;42.622;23.316;2022-11-20T02:04:46;0.32;;;0.30;;
65636;SDS011;52327;42.622;23.316;2022-11-20T02:07:14;0.40;;;0.35;;
65636;SDS011;52327;42.622;23.316;2022-11-20T02:09:39;0.47;;;0.28;;
65636;SDS011;52327;42.622;23.316;2022-11-20T02:12:05;0.65;;;0.30;;
65636;SDS011;52327;42.622;23.316;2022-11-20T02:14:50;0.50;;;0.40;;
65636;SDS011;52327;42.622;23.316;2022-11-20T02:17:16;0.25;;;0.20;;
65636;SDS011;52327;42.622;23.316;2022-11-20T02:19:41;0.13;;;0.13;;
65636;SDS011;52327;42.622;23.316;2022-11-20T02:22:14;0.30;;;0.10;;
65636;SDS011;52327;42.622;23.316;2022-11-20T02:24:51;0.10;;;0.10;;
65636;SDS011;52327;42.622;23.316;2022-11-20T02:27:17;0.32;;;0.30;;
65636;SDS011;52327;42.622;23.316;2022-11-20T02:29:47;0.30;;;0.30;;
65636;SDS011;52327;42.622;23.316;2022-11-20T02:32:25;0.32;;;0.32;;
65636;SDS011;52327;42.622;23.316;2022-11-20T02:34:51;0.10;;;0.03;;
65636;SDS011;52327;42.622;23.316;2022-11-20T02:37:16;0.52;;;0.40;;
65636;SDS011;52327;42.622;23.316;2022-11-20T02:39:43;3.15;;;0.30;;
65636;SDS011;52327;42.622;23.316;2022-11-20T02:42:11;0.43;;;0.40;;
65636;SDS011;52327;42.622;23.316;2022-11-20T02:44:36;0.38;;;0.38;;
65636;SDS011;52327;42.622;23.316;2022-11-20T02:47:02;0.47;;;0.30;;
65636;SDS011;52327;42.622;23.316;2022-11-20T02:49:28;0.80;;;0.63;;
65636;SDS011;52327;42.622;23.316;2022-11-20T02:51:53;0.30;;;0.30;;
65636;SDS011;52327;42.622;23.316;2022-11-20T02:54:19;0.68;;;0.43;;
65636;SDS011;52327;42.622;23.316;2022-11-20T02:56:44;2.17;;;0.55;;
65636;SDS011;52327;42.622;23.316;2022-11-20T02:59:09;0.88;;;0.55;;
65636;SDS011;52327;42.622;23.316;2022-11-20T03:01:35;0.30;;;0.30;;
65636;SDS011;52327;42.622;23.316;2022-11-20T03:04:00;0.20;;;0.13;;
65636;SDS011;52327;42.622;23.316;2022-11-20T03:06:26;0.28;;;0.28;;
65636;SDS011;52327;42.622;23.316;2022-11-20T03:08:52;0.30;;;0.30;;
65636;SDS011;52327;42.622;23.316;2022-11-20T03:11:17;0.60;;;0.47;;
65636;SDS011;52327;42.622;23.316;2022-11-20T03:13:43;0.28;;;0.28;;
65636;SDS011;52327;42.622;23.316;2022-11-20T03:16:09;0.30;;;0.30;;
65636;SDS011;52327;42.622;23.316;2022-11-20T03:18:40;4.35;;;0.40;;
65636;SDS011;52327;42.622;23.316;2022-11-20T03:21:09;0.55;;;0.43;;
65636;SDS011;52327;42.622;23.316;2022-11-20T03:23:36;0.73;;;0.40;;
65636;SDS011;52327;42.622;23.316;2022-11-20T03:26:09;1.27;;;1.05;;
65636;SDS011;52327;42.622;23.316;2022-11-20T03:28:34;0.40;;;0.40;;
65636;SDS011;52327;42.622;23.316;2022-11-20T03:31:04;0.50;;;0.38;;
65636;SDS011;52327;42.622;23.316;2022-11-20T03:33:34;0.63;;;0.30;;
65636;SDS011;52327;42.622;23.316;2022-11-20T03:36:06;0.73;;;0.20;;
65636;SDS011;52327;42.622;23.316;2022-11-20T03:38:33;0.90;;;0.50;;
65636;SDS011;52327;42.622;23.316;2022-11-20T03:41:03;0.98;;;0.32;;
65636;SDS011;52327;42.622;23.316;2022-11-20T03:43:31;0.25;;;0.25;;
65636;SDS011;52327;42.622;23.316;2022-11-20T03:45:57;0.30;;;0.20;;
65636;SDS011;52327;42.622;23.316;2022-11-20T03:48:22;0.45;;;0.40;;
65636;SDS011;52327;42.622;23.316;2022-11-20T03:50:51;0.30;;;0.30;;
65636;SDS011;52327;42.622;23.316;2022-11-20T03:53:37;0.37;;;0.10;;
65636;SDS011;52327;42.622;23.316;2022-11-20T03:56:04;3.60;;;0.47;;
65636;SDS011;52327;42.622;23.316;2022-11-20T03:58:30;0.10;;;0.10;;
65636;SDS011;52327;42.622;23.316;2022-11-20T04:00:55;0.50;;;0.40;;
65636;SDS011;52327;42.622;23.316;2022-11-20T04:03:21;0.20;;;0.20;;
65636;SDS011;52327;42.622;23.316;2022-11-20T04:05:46;0.30;;;0.30;;
65636;SDS011;52327;42.622;23.316;2022-11-20T04:08:11;0.80;;;0.43;;
65636;SDS011;52327;42.622;23.316;2022-11-20T04:10:37;0.28;;;0.28;;
65636;SDS011;52327;42.622;23.316;2022-11-20T04:13:06;0.30;;;0.20;;
65636;SDS011;52327;42.622;23.316;2022-11-20T04:15:35;0.22;;;0.10;;
65636;SDS011;52327;42.622;23.316;2022-11-20T04:18:00;0.57;;;0.40;;
65636;SDS011;52327;42.622;23.316;2022-11-20T04:20:26;0.10;;;0.10;;
65636;SDS011;52327;42.622;23.316;2022-11-20T04:22:53;0.30;;;0.20;;
65636;SDS011;52327;42.622;23.316;2022-11-20T04:25:19;0.65;;;0.60;;
65636;SDS011;52327;42.622;23.316;2022-11-20T04:27:45;0.20;;;0.20;;
65636;SDS011;52327;42.622;23.316;2022-11-20T04:30:10;0.20;;;0.20;;
65636;SDS011;52327;42.622;23.316;2022-11-20T04:32:36;0.15;;;0.15;;
65636;SDS011;52327;42.622;23.316;2022-11-20T04:35:01;0.88;;;0.40;;
65636;SDS011;52327;42.622;23.316;2022-11-20T04:37:27;0.43;;;0.32;;
65636;SDS011;52327;42.622;23.316;2022-11-20T04:39:52;0.98;;;0.50;;
65636;SDS011;52327;42.622;23.316;2022-11-20T04:42:18;0.73;;;0.40;;
65636;SDS011;52327;42.622;23.316;2022-11-20T04:44:55;1.85;;;0.60;;
65636;SDS011;52327;42.622;23.316;2022-11-20T04:47:20;0.32;;;0.30;;
65636;SDS011;52327;42.622;23.316;2022-11-20T04:49:46;2.58;;;0.60;;
65636;SDS011;52327;42.622;23.316;2022-11-20T04:52:12;0.28;;;0.28;;
65636;SDS011;52327;42.622;23.316;2022-11-20T04:54:37;0.30;;;0.30;;
65636;SDS011;52327;42.622;23.316;2022-11-20T04:57:03;1.55;;;0.35;;
65636;SDS011;52327;42.622;23.316;2022-11-20T04:59:28;0.30;;;0.30;;
65636;SDS011;52327;42.622;23.316;2022-11-20T05:01:54;0.25;;;0.25;;
65636;SDS011;52327;42.622;23.316;2022-11-20T05:04:19;0.38;;;0.35;;
65636;SDS011;52327;42.622;23.316;2022-11-20T05:06:44;0.43;;;0.30;;
65636;SDS011;52327;42.622;23.316;2022-11-20T05:09:10;0.47;;;0.28;;
65636;SDS011;52327;42.622;23.316;2022-11-20T05:11:37;0.45;;;0.40;;
65636;SDS011;52327;42.622;23.316;2022-11-20T05:14:02;0.60;;;0.28;;
65636;SDS011;52327;42.622;23.316;2022-11-20T05:16:28;0.30;;;0.28;;
65636;SDS011;52327;42.622;23.316;2022-11-20T05:18:53;0.43;;;0.40;;
65636;SDS011;52327;42.622;23.316;2022-11-20T05:21:19;0.30;;;0.30;;
65636;SDS011;52327;42.622;23.316;2022-11-20T05:23:45;0.05;;;0.05;;
65636;SDS011;52327;42.622;23.316;2022-11-20T05:26:18;0.55;;;0.43;;
65636;SDS011;52327;42.622;23.316;2022-11-20T05:28:46;0.20;;;0.20;;
65636;SDS011;52327;42.622;23.316;2022-11-20T05:31:16;1.08;;;0.40;;
65636;SDS011;52327;42.622;23.316;2022-11-20T05:33:46;3.97;;;0.38;;
65636;SDS011;52327;42.622;23.316;2022-11-20T05:36:12;0.32;;;0.32;;
65636;SDS011;52327;42.622;23.316;2022-11-20T05:38:39;0.20;;;0.20;;
65636;SDS011;52327;42.622;23.316;2022-11-20T05:41:05;0.70;;;0.50;;
65636;SDS011;52327;42.622;23.316;2022-11-20T05:43:33;1.63;;;0.35;;
65636;SDS011;52327;42.622;23.316;2022-11-20T05:45:59;0.20;;;0.20;;
65636;SDS011;52327;42.622;23.316;2022-11-20T05:48:25;0.65;;;0.38;;
65636;SDS011;52327;42.622;23.316;2022-11-20T05:50:50;2.40;;;0.70;;
65636;SDS011;52327;42.622;23.316;2022-11-20T05:53:16;1.27;;;0.47;;
65636;SDS011;52327;42.622;23.316;2022-11-20T05:55:41;2.20;;;0.75;;
65636;SDS011;52327;42.622;23.316;2022-11-20T05:58:07;0.63;;;0.40;;
65636;SDS011;52327;42.622;23.316;2022-11-20T06:00:32;0.93;;;0.52;;
65636;SDS011;52327;42.622;23.316;2022-11-20T06:02:57;0.30;;;0.30;;
65636;SDS011;52327;42.622;23.316;2022-11-20T06:05:23;0.15;;;0.15;;
65636;SDS011;52327;42.622;23.316;2022-11-20T06:07:48;1.80;;;0.45;;
65636;SDS011;52327;42.622;23.316;2022-11-20T06:10:14;0.15;;;0.15;;
65636;SDS011;52327;42.622;23.316;2022-11-20T06:12:39;0.70;;;0.32;;
65636;SDS011;52327;42.622;23.316;2022-11-20T06:15:05;1.38;;;0.28;;
65636;SDS011;52327;42.622;23.316;2022-11-20T06:17:40;0.60;;;0.45;;
65636;SDS011;52327;42.622;23.316;2022-11-20T06:20:06;1.05;;;0.60;;
65636;SDS011;52327;42.622;23.316;2022-11-20T06:22:32;0.82;;;0.40;;
65636;SDS011;52327;42.622;23.316;2022-11-20T06:24:57;0.13;;;0.13;;
65636;SDS011;52327;42.622;23.316;2022-11-20T06:27:22;0.20;;;0.20;;
65636;SDS011;52327;42.622;23.316;2022-11-20T06:29:48;0.93;;;0.25;;
65636;SDS011;52327;42.622;23.316;2022-11-20T06:32:13;1.17;;;0.57;;
65636;SDS011;52327;42.622;23.316;2022-11-20T06:34:39;0.20;;;0.20;;
65636;SDS011;52327;42.622;23.316;2022-11-20T06:37:04;0.10;;;0.03;;
65636;SDS011;52327;42.622;23.316;2022-11-20T06:39:29;0.22;;;0.20;;
65636;SDS011;52327;42.622;23.316;2022-11-20T06:41:55;0.20;;;0.20;;
65636;SDS011;52327;42.622;23.316;2022-11-20T06:44:20;0.10;;;0.10;;
65636;SDS011;52327;42.622;23.316;2022-11-20T06:46:46;1.83;;;0.43;;
65636;SDS011;52327;42.622;23.316;2022-11-20T06:49:11;0.20;;;0.10;;
65636;SDS011;52327;42.622;23.316;2022-11-20T06:51:36;0.25;;;0.25;;
65636;SDS011;52327;42.622;23.316;2022-11-20T06:54:02;0.73;;;0.30;;
65636;SDS011;52327;42.622;23.316;2022-11-20T06:56:28;1.77;;;0.30;;
65636;SDS011;52327;42.622;23.316;2022-11-20T06:58:53;1.77;;;0.55;;
65636;SDS011;52327;42.622;23.316;2022-11-20T07:01:18;0.25;;;0.25;;
65636;SDS011;52327;42.622;23.316;2022-11-20T07:03:44;0.10;;;0.10;;
65636;SDS011;52327;42.622;23.316;2022-11-20T07:06:09;0.38;;;0.20;;
65636;SDS011;52327;42.622;23.316;2022-11-20T07:08:35;0.20;;;0.20;;
65636;SDS011;52327;42.622;23.316;2022-11-20T07:11:02;0.65;;;0.25;;
65636;SDS011;52327;42.622;23.316;2022-11-20T07:13:30;1.53;;;0.40;;
65636;SDS011;52327;42.622;23.316;2022-11-20T07:16:00;2.72;;;0.40;;
65636;SDS011;52327;42.622;23.316;2022-11-20T07:18:30;0.10;;;0.10;;
65636;SDS011;52327;42.622;23.316;2022-11-20T07:20:55;3.13;;;0.65;;
65636;SDS011;52327;42.622;23.316;2022-11-20T07:23:21;0.20;;;0.20;;
65636;SDS011;52327;42.622;23.316;2022-11-20T07:25:46;0.10;;;0.10;;
65636;SDS011;52327;42.622;23.316;2022-11-20T07:31:34;5.15;;;0.40;;
65636;SDS011;52327;42.622;23.316;2022-11-20T07:34:05;3.55;;;0.82;;
65636;SDS011;52327;42.622;23.316;2022-11-20T07:43:51;0.60;;;0.60;;
65636;SDS011;52327;42.622;23.316;2022-11-20T07:46:44;0.60;;;0.25;;
65636;SDS011;52327;42.622;23.316;2022-11-20T07:50:12;0.30;;;0.05;;
65636;SDS011;52327;42.622;23.316;2022-11-20T08:05:25;0.73;;;0.65;;
65636;SDS011;52327;42.622;23.316;2022-11-20T08:07:54;3.72;;;0.80;;
65636;SDS011;52327;42.622;23.316;2022-11-20T08:10:32;1.67;;;0.80;;
65636;SDS011;52327;42.622;23.316;2022-11-20T08:13:00;0.40;;;0.40;;
65636;SDS011;52327;42.622;23.316;2022-11-20T08:15:55;0.70;;;0.45;;
65636;SDS011;52327;42.622;23.316;2022-11-20T08:18:26;0.82;;;0.40;;
65636;SDS011;52327;42.622;23.316;2022-11-20T08:21:02;2.72;;;0.60;;
65636;SDS011;52327;42.622;23.316;2022-11-20T08:33:58;1.30;;;0.68;;
65636;SDS011;52327;42.622;23.316;2022-11-20T08:44:14;0.40;;;0.30;;
65636;SDS011;52327;42.622;23.316;2022-11-20T08:47:27;1.75;;;0.57;;
65636;SDS011;52327;42.622;23.316;2022-11-20T08:50:09;0.30;;;0.30;;
65636;SDS011;52327;42.622;23.316;2022-11-20T08:52:36;1.10;;;0.38;;
65636;SDS011;52327;42.622;23.316;2022-11-20T08:57:55;3.92;;;1.00;;
65636;SDS011;52327;42.622;23.316;2022-11-20T09:00:21;0.70;;;0.70;;
65636;SDS011;52327;42.622;23.316;2022-11-20T09:02:56;1.00;;;0.70;;
65636;SDS011;52327;42.622;23.316;2022-11-20T09:05:50;1.00;;;0.90;;
65636;SDS011;52327;42.622;23.316;2022-11-20T09:21:10;1.38;;;1.05;;
65636;SDS011;52327;42.622;23.316;2022-11-20T09:23:40;0.98;;;0.57;;
65636;SDS011;52327;42.622;23.316;2022-11-20T09:30:11;0.30;;;0.30;;
65636;SDS011;52327;42.622;23.316;2022-11-20T09:32:40;0.93;;;0.60;;
65636;SDS011;52327;42.622;23.316;2022-11-20T09:35:08;0.82;;;0.80;;
65636;SDS011;52327;42.622;23.316;2022-11-20T09:37:34;0.63;;;0.55;;
65636;SDS011;52327;42.622;23.316;2022-11-20T09:45:28;5.20;;;3.38;;
65636;SDS011;52327;42.622;23.316;2022-11-20T09:50:57;3.17;;;2.00;;
65636;SDS011;52327;42.622;23.316;2022-11-20T09:56:23;1.20;;;0.82;;
65636;SDS011;52327;42.622;23.316;2022-11-20T09:58:49;1.40;;;0.90;;
65636;SDS011;52327;42.622;23.316;2022-11-20T10:01:30;4.38;;;1.20;;
65636;SDS011;52327;42.622;23.316;2022-11-20T10:04:03;2.40;;;1.20;;
65636;SDS011;52327;42.622;23.316;2022-11-20T10:06:33;1.25;;;0.88;;
65636;SDS011;52327;42.622;23.316;2022-11-20T10:09:16;1.67;;;1.08;;
65636;SDS011;52327;42.622;23.316;2022-11-20T10:12:07;3.47;;;1.33;;
65636;SDS011;52327;42.622;23.316;2022-11-20T10:25:39;1.73;;;1.10;;
65636;SDS011;52327;42.622;23.316;2022-11-20T10:28:22;1.95;;;1.10;;
65636;SDS011;52327;42.622;23.316;2022-11-20T10:30:57;3.15;;;1.55;;
65636;SDS011;52327;42.622;23.316;2022-11-20T10:33:26;3.90;;;1.33;;
65636;SDS011;52327;42.622;23.316;2022-11-20T10:38:37;2.08;;;1.05;;
65636;SDS011;52327;42.622;23.316;2022-11-20T10:41:11;1.08;;;0.88;;
65636;SDS011;52327;42.622;23.316;2022-11-20T10:43:53;0.60;;;0.60;;
65636;SDS011;52327;42.622;23.316;2022-11-20T10:46:34;1.77;;;1.17;;
65636;SDS011;52327;42.622;23.316;2022-11-20T10:49:11;3.17;;;1.35;;
65636;SDS011;52327;42.622;23.316;2022-11-20T10:54:35;1.42;;;0.98;;
65636;SDS011;52327;42.622;23.316;2022-11-20T11:02:23;3.20;;;1.77;;
65636;SDS011;52327;42.622;23.316;2022-11-20T11:04:57;2.38;;;1.60;;
65636;SDS011;52327;42.622;23.316;2022-11-20T11:07:36;1.83;;;1.20;;
65636;SDS011;52327;42.622;23.316;2022-11-20T11:13:06;7.00;;;2.30;;
65636;SDS011;52327;42.622;23.316;2022-11-20T11:15:39;1.63;;;0.93;;
65636;SDS011;52327;42.622;23.316;2022-11-20T11:18:10;1.75;;;0.73;;
65636;SDS011;52327;42.622;23.316;2022-11-20T11:20:36;0.52;;;0.30;;
65636;SDS011;52327;42.622;23.316;2022-11-20T11:23:02;0.95;;;0.60;;
65636;SDS011;52327;42.622;23.316;2022-11-20T11:25:33;0.32;;;0.28;;
65636;SDS011;52327;42.622;23.316;2022-11-20T11:28:04;2.05;;;1.30;;
65636;SDS011;52327;42.622;23.316;2022-11-20T11:30:45;0.95;;;0.50;;
65636;SDS011;52327;42.622;23.316;2022-11-20T11:33:28;1.27;;;0.38;;
65636;SDS011;52327;42.622;23.316;2022-11-20T11:35:57;0.52;;;0.25;;
65636;SDS011;52327;42.622;23.316;2022-11-20T11:38:41;0.20;;;0.10;;
65636;SDS011;52327;42.622;23.316;2022-11-20T11:41:17;0.85;;;0.28;;
65636;SDS011;52327;42.622;23.316;2022-11-20T11:43:53;2.60;;;1.27;;
65636;SDS011;52327;42.622;23.316;2022-11-20T11:46:39;1.08;;;0.32;;
65636;SDS011;52327;42.622;23.316;2022-11-20T11:49:18;0.10;;;0.10;;
65636;SDS011;52327;42.622;23.316;2022-11-20T11:57:10;0.30;;;0.30;;
65636;SDS011;52327;42.622;23.316;2022-11-20T12:00:09;0.38;;;0.20;;
65636;SDS011;52327;42.622;23.316;2022-11-20T12:07:42;0.20;;;0.20;;
65636;SDS011;52327;42.622;23.316;2022-11-20T12:13:15;0.08;;;0.08;;
65636;SDS011;52327;42.622;23.316;2022-11-20T12:15:46;0.28;;;0.28;;
65636;SDS011;52327;42.622;23.316;2022-11-20T12:18:20;0.20;;;0.20;;
65636;SDS011;52327;42.622;23.316;2022-11-20T12:26:08;0.10;;;0.10;;
65636;SDS011;52327;42.622;23.316;2022-11-20T12:29:31;0.17;;;0.17;;
65636;SDS011;52327;42.622;23.316;2022-11-20T12:32:01;0.00;;;0.00;;
65636;SDS011;52327;42.622;23.316;2022-11-20T12:37:37;0.00;;;0.00;;
65636;SDS011;52327;42.622;23.316;2022-11-20T12:40:32;0.40;;;0.38;;
65636;SDS011;52327;42.622;23.316;2022-11-20T12:43:25;0.28;;;0.28;;
65636;SDS011;52327;42.622;23.316;2022-11-20T12:49:04;0.73;;;0.50;;
65636;SDS011;52327;42.622;23.316;2022-11-20T13:00:19;0.75;;;0.30;;
65636;SDS011;52327;42.622;23.316;2022-11-20T13:08:04;0.25;;;0.25;;
65636;SDS011;52327;42.622;23.316;2022-11-20T13:10:46;0.35;;;0.15;;
65636;SDS011;52327;42.622;23.316;2022-11-20T13:18:20;1.70;;;0.60;;
65636;SDS011;52327;42.622;23.316;2022-11-20T13:20:46;2.63;;;0.40;;
65636;SDS011;52327;42.622;23.316;2022-11-20T13:23:22;1.83;;;0.95;;
65636;SDS011;52327;42.622;23.316;2022-11-20T13:26:02;1.90;;;1.27;;
65636;SDS011;52327;42.622;23.316;2022-11-20T13:28:39;2.97;;;1.48;;
65636;SDS011;52327;42.622;23.316;2022-11-20T13:31:09;3.55;;;1.50;;
65636;SDS011;52327;42.622;23.316;2022-11-20T13:33:51;0.50;;;0.40;;
65636;SDS011;52327;42.622;23.316;2022-11-20T13:36:21;0.68;;;0.68;;
65636;SDS011;52327;42.622;23.316;2022-11-20T13:38:50;8.70;;;5.32;;
65636;SDS011;52327;42.622;23.316;2022-11-20T13:43:59;1.15;;;0.93;;
65636;SDS011;52327;42.622;23.316;2022-11-20T13:46:45;1.45;;;1.02;;
65636;SDS011;52327;42.622;23.316;2022-11-20T13:49:54;1.98;;;1.35;;
65636;SDS011;52327;42.622;23.316;2022-11-20T13:58:19;1.23;;;0.85;;
65636;SDS011;52327;42.622;23.316;2022-11-20T14:00:50;3.85;;;1.75;;
65636;SDS011;52327;42.622;23.316;2022-11-20T14:03:22;3.97;;;2.35;;
65636;SDS011;52327;42.622;23.316;2022-11-20T14:05:50;2.28;;;1.98;;
65636;SDS011;52327;42.622;23.316;2022-11-20T14:11:05;2.65;;;2.33;;
65636;SDS011;52327;42.622;23.316;2022-11-20T14:13:39;3.50;;;2.25;;
65636;SDS011;52327;42.622;23.316;2022-11-20T14:16:04;1.67;;;1.13;;
65636;SDS011;52327;42.622;23.316;2022-11-20T14:18:30;2.70;;;1.88;;
65636;SDS011;52327;42.622;23.316;2022-11-20T14:20:55;4.30;;;2.67;;
65636;SDS011;52327;42.622;23.316;2022-11-20T14:23:27;4.95;;;2.42;;
65636;SDS011;52327;42.622;23.316;2022-11-20T14:25:54;2.33;;;1.70;;
65636;SDS011;52327;42.622;23.316;2022-11-20T14:28:23;1.15;;;0.82;;
65636;SDS011;52327;42.622;23.316;2022-11-20T14:30:51;2.80;;;1.75;;
65636;SDS011;52327;42.622;23.316;2022-11-20T14:33:17;9.27;;;5.45;;
65636;SDS011;52327;42.622;23.316;2022-11-20T14:35:48;1.27;;;1.08;;
65636;SDS011;52327;42.622;23.316;2022-11-20T14:38:17;1.85;;;0.80;;
65636;SDS011;52327;42.622;23.316;2022-11-20T14:40:45;2.70;;;1.02;;
65636;SDS011;52327;42.622;23.316;2022-11-20T14:43:18;3.30;;;1.92;;
65636;SDS011;52327;42.622;23.316;2022-11-20T14:46:00;4.13;;;2.92;;
65636;SDS011;52327;42.622;23.316;2022-11-20T14:48:37;2.40;;;1.90;;
65636;SDS011;52327;42.622;23.316;2022-11-20T14:51:05;2.33;;;1.40;;
65636;SDS011;52327;42.622;23.316;2022-11-20T14:53:36;4.90;;;2.60;;
65636;SDS011;52327;42.622;23.316;2022-11-20T14:56:02;3.10;;;2.15;;
65636;SDS011;52327;42.622;23.316;2022-11-20T14:58:28;5.60;;;2.38;;
65636;SDS011;52327;42.622;23.316;2022-11-20T15:01:06;3.67;;;2.45;;
65636;SDS011;52327;42.622;23.316;2022-11-20T15:03:40;4.50;;;2.15;;
65636;SDS011;52327;42.622;23.316;2022-11-20T15:06:06;5.43;;;2.85;;
65636;SDS011;52327;42.622;23.316;2022-11-20T15:08:35;5.30;;;3.40;;
65636;SDS011;52327;42.622;23.316;2022-11-20T15:11:00;4.28;;;2.17;;
65636;SDS011;52327;42.622;23.316;2022-11-20T15:13:31;3.55;;;1.77;;
65636;SDS011;52327;42.622;23.316;2022-11-20T15:16:00;2.58;;;1.85;;
65636;SDS011;52327;42.622;23.316;2022-11-20T15:18:31;4.35;;;2.08;;
65636;SDS011;52327;42.622;23.316;2022-11-20T15:21:02;2.80;;;1.73;;
65636;SDS011;52327;42.622;23.316;2022-11-20T15:23:29;1.63;;;1.25;;
65636;SDS011;52327;42.622;23.316;2022-11-20T15:25:55;1.42;;;1.15;;
65636;SDS011;52327;42.622;23.316;2022-11-20T15:30:51;0.85;;;0.85;;
65636;SDS011;52327;42.622;23.316;2022-11-20T15:33:17;1.65;;;0.70;;
65636;SDS011;52327;42.622;23.316;2022-11-20T15:35:44;0.40;;;0.40;;
65636;SDS011;52327;42.622;23.316;2022-11-20T15:38:09;0.65;;;0.55;;
65636;SDS011;52327;42.622;23.316;2022-11-20T15:40:35;1.10;;;0.90;;
65636;SDS011;52327;42.622;23.316;2022-11-20T15:43:01;1.85;;;1.27;;
65636;SDS011;52327;42.622;23.316;2022-11-20T15:45:33;2.08;;;1.60;;
65636;SDS011;52327;42.622;23.316;2022-11-20T15:48:28;0.88;;;0.40;;
65636;SDS011;52327;42.622;23.316;2022-11-20T15:51:01;0.95;;;0.60;;
65636;SDS011;52327;42.622;23.316;2022-11-20T15:53:34;6.40;;;3.20;;
65636;SDS011;52327;42.622;23.316;2022-11-20T15:56:00;3.60;;;1.45;;
65636;SDS011;52327;42.622;23.316;2022-11-20T15:58:26;0.93;;;0.70;;
65636;SDS011;52327;42.622;23.316;2022-11-20T16:00:52;3.88;;;2.33;;
65636;SDS011;52327;42.622;23.316;2022-11-20T16:03:17;2.45;;;1.63;;
65636;SDS011;52327;42.622;23.316;2022-11-20T16:05:43;2.83;;;1.98;;
65636;SDS011;52327;42.622;23.316;2022-11-20T16:08:09;1.50;;;1.10;;
65636;SDS011;52327;42.622;23.316;2022-11-20T16:10:34;1.15;;;1.05;;
65636;SDS011;52327;42.622;23.316;2022-11-20T16:13:00;4.38;;;1.48;;
65636;SDS011;52327;42.622;23.316;2022-11-20T16:15:51;3.67;;;1.80;;
65636;SDS011;52327;42.622;23.316;2022-11-20T16:18:20;2.25;;;1.65;;
65636;SDS011;52327;42.622;23.316;2022-11-20T16:20:53;1.88;;;1.08;;
65636;SDS011;52327;42.622;23.316;2022-11-20T16:23:20;4.43;;;1.40;;
65636;SDS011;52327;42.622;23.316;2022-11-20T16:25:46;1.38;;;1.00;;
65636;SDS011;52327;42.622;23.316;2022-11-20T16:28:12;2.17;;;1.52;;
65636;SDS011;52327;42.622;23.316;2022-11-20T16:30:38;1.73;;;1.25;;
65636;SDS011;52327;42.622;23.316;2022-11-20T16:33:04;2.53;;;1.85;;
65636;SDS011;52327;42.622;23.316;2022-11-20T16:35:36;7.65;;;5.65;;
65636;SDS011;52327;42.622;23.316;2022-11-20T16:38:01;3.42;;;2.45;;
65636;SDS011;52327;42.622;23.316;2022-11-20T16:40:27;2.47;;;1.67;;
65636;SDS011;52327;42.622;23.316;2022-11-20T16:42:52;3.42;;;1.67;;
65636;SDS011;52327;42.622;23.316;2022-11-20T16:45:17;1.83;;;1.05;;
65636;SDS011;52327;42.622;23.316;2022-11-20T16:47:43;1.45;;;1.30;;
65636;SDS011;52327;42.622;23.316;2022-11-20T16:50:09;1.63;;;0.95;;
65636;SDS011;52327;42.622;23.316;2022-11-20T16:52:34;0.40;;;0.40;;
65636;SDS011;52327;42.622;23.316;2022-11-20T16:55:00;1.35;;;0.95;;
65636;SDS011;52327;42.622;23.316;2022-11-20T16:57:29;1.25;;;1.15;;
65636;SDS011;52327;42.622;23.316;2022-11-20T16:59:56;1.20;;;0.55;;
65636;SDS011;52327;42.622;23.316;2022-11-20T17:02:22;1.38;;;0.90;;
65636;SDS011;52327;42.622;23.316;2022-11-20T17:04:47;1.45;;;1.02;;
65636;SDS011;52327;42.622;23.316;2022-11-20T17:07:13;1.00;;;0.75;;
65636;SDS011;52327;42.622;23.316;2022-11-20T17:09:38;13.82;;;8.43;;
65636;SDS011;52327;42.622;23.316;2022-11-20T17:12:04;12.50;;;4.70;;
65636;SDS011;52327;42.622;23.316;2022-11-20T17:14:29;9.50;;;4.60;;
65636;SDS011;52327;42.622;23.316;2022-11-20T17:16:55;3.95;;;1.75;;
65636;SDS011;52327;42.622;23.316;2022-11-20T17:19:20;5.15;;;2.47;;
65636;SDS011;52327;42.622;23.316;2022-11-20T17:21:46;5.82;;;3.97;;
65636;SDS011;52327;42.622;23.316;2022-11-20T17:24:11;5.32;;;3.95;;
65636;SDS011;52327;42.622;23.316;2022-11-20T17:26:38;3.33;;;2.33;;
65636;SDS011;52327;42.622;23.316;2022-11-20T17:29:06;3.35;;;2.42;;
65636;SDS011;52327;42.622;23.316;2022-11-20T17:31:34;4.15;;;2.72;;
65636;SDS011;52327;42.622;23.316;2022-11-20T17:34:02;4.47;;;2.78;;